Atlanta, Georgia
Current Conditions -  °F | °C
As of 2:52 PM on Saturday 25 Oct 2014 (Local Time) from KATL Reporting Station
Clear Clear  
Wind Chill: 75°   Ceiling: Unl
Heat Index: 75°   Visibility: 10mi
Dew Point: 40°   Wind: 9mph
Humidity: 28%   Direction: 350°N
Pressure: 30.03"   Gusts: NA
Location:  33.75°N, 84.39°W
Report Text: KATL 251852Z 35008KT 10SM CLR 24/04 A3003 RMK AO2 SLP165 T02390044
Loading
Personal Weather Stations






























Interactive Weather Map
Tropical Storm Tracking
New forecast layout! Learn more

10-Day Weather Forecast

Advertisements
Track Severe Weather on mobile